sensor_id;sensor_type;location;lat;lon;timestamp;P1;durP1;ratioP1;P2;durP2;ratioP2
48203;SDS011;33994;50.998;5.864;2022-12-18T00:00:53;55.45;;;20.77;;
48203;SDS011;33994;50.998;5.864;2022-12-18T00:03:58;48.35;;;20.90;;
48203;SDS011;33994;50.998;5.864;2022-12-18T00:07:02;45.50;;;19.42;;
48203;SDS011;33994;50.998;5.864;2022-12-18T00:10:06;46.17;;;20.55;;
48203;SDS011;33994;50.998;5.864;2022-12-18T00:13:09;51.78;;;20.27;;
48203;SDS011;33994;50.998;5.864;2022-12-18T00:16:13;39.53;;;18.63;;
48203;SDS011;33994;50.998;5.864;2022-12-18T00:19:19;44.60;;;19.10;;
48203;SDS011;33994;50.998;5.864;2022-12-18T00:22:22;44.40;;;20.23;;
48203;SDS011;33994;50.998;5.864;2022-12-18T00:25:25;49.72;;;20.80;;
48203;SDS011;33994;50.998;5.864;2022-12-18T00:28:28;47.15;;;20.17;;
48203;SDS011;33994;50.998;5.864;2022-12-18T00:31:31;43.28;;;19.65;;
48203;SDS011;33994;50.998;5.864;2022-12-18T00:34:36;44.58;;;19.63;;
48203;SDS011;33994;50.998;5.864;2022-12-18T00:37:39;43.10;;;20.23;;
48203;SDS011;33994;50.998;5.864;2022-12-18T00:40:42;44.45;;;20.45;;
48203;SDS011;33994;50.998;5.864;2022-12-18T00:43:46;44.88;;;20.27;;
48203;SDS011;33994;50.998;5.864;2022-12-18T00:46:49;45.22;;;21.08;;
48203;SDS011;33994;50.998;5.864;2022-12-18T00:49:54;41.10;;;17.88;;
48203;SDS011;33994;50.998;5.864;2022-12-18T00:52:57;43.90;;;18.63;;
48203;SDS011;33994;50.998;5.864;2022-12-18T00:56:00;48.28;;;19.23;;
48203;SDS011;33994;50.998;5.864;2022-12-18T00:59:03;39.42;;;18.73;;
48203;SDS011;33994;50.998;5.864;2022-12-18T01:02:07;44.70;;;19.60;;
48203;SDS011;33994;50.998;5.864;2022-12-18T01:05:12;44.28;;;18.08;;
48203;SDS011;33994;50.998;5.864;2022-12-18T01:08:16;39.92;;;18.48;;
48203;SDS011;33994;50.998;5.864;2022-12-18T01:11:19;42.50;;;19.33;;
48203;SDS011;33994;50.998;5.864;2022-12-18T01:14:23;46.20;;;18.50;;
48203;SDS011;33994;50.998;5.864;2022-12-18T01:17:26;50.45;;;19.63;;
48203;SDS011;33994;50.998;5.864;2022-12-18T01:20:31;44.10;;;18.50;;
48203;SDS011;33994;50.998;5.864;2022-12-18T01:23:34;43.33;;;18.55;;
48203;SDS011;33994;50.998;5.864;2022-12-18T01:26:37;38.60;;;18.95;;
48203;SDS011;33994;50.998;5.864;2022-12-18T01:29:40;41.92;;;17.55;;
48203;SDS011;33994;50.998;5.864;2022-12-18T01:32:44;42.78;;;16.92;;
48203;SDS011;33994;50.998;5.864;2022-12-18T01:35:48;38.33;;;16.52;;
48203;SDS011;33994;50.998;5.864;2022-12-18T01:38:51;39.80;;;17.58;;
48203;SDS011;33994;50.998;5.864;2022-12-18T01:41:54;34.40;;;16.48;;
48203;SDS011;33994;50.998;5.864;2022-12-18T01:45:00;39.35;;;16.33;;
48203;SDS011;33994;50.998;5.864;2022-12-18T01:48:07;41.92;;;17.60;;
48203;SDS011;33994;50.998;5.864;2022-12-18T01:51:13;37.85;;;16.00;;
48203;SDS011;33994;50.998;5.864;2022-12-18T01:54:16;41.85;;;16.35;;
48203;SDS011;33994;50.998;5.864;2022-12-18T01:57:20;30.27;;;14.95;;
48203;SDS011;33994;50.998;5.864;2022-12-18T02:00:23;35.85;;;15.95;;
48203;SDS011;33994;50.998;5.864;2022-12-18T02:03:27;34.97;;;15.27;;
48203;SDS011;33994;50.998;5.864;2022-12-18T02:06:33;37.03;;;15.25;;
48203;SDS011;33994;50.998;5.864;2022-12-18T02:09:43;35.45;;;16.20;;
48203;SDS011;33994;50.998;5.864;2022-12-18T02:12:52;36.03;;;16.20;;
48203;SDS011;33994;50.998;5.864;2022-12-18T02:16:00;37.97;;;15.43;;
48203;SDS011;33994;50.998;5.864;2022-12-18T02:19:16;30.73;;;14.25;;
48203;SDS011;33994;50.998;5.864;2022-12-18T02:22:33;36.75;;;14.88;;
48203;SDS011;33994;50.998;5.864;2022-12-18T02:25:56;35.30;;;13.98;;
48203;SDS011;33994;50.998;5.864;2022-12-18T02:29:20;35.63;;;14.20;;
48203;SDS011;33994;50.998;5.864;2022-12-18T02:32:27;34.00;;;14.57;;
48203;SDS011;33994;50.998;5.864;2022-12-18T02:35:33;32.10;;;14.15;;
48203;SDS011;33994;50.998;5.864;2022-12-18T02:38:38;33.92;;;13.25;;
48203;SDS011;33994;50.998;5.864;2022-12-18T02:41:44;36.05;;;14.50;;
48203;SDS011;33994;50.998;5.864;2022-12-18T02:44:48;34.60;;;14.57;;
48203;SDS011;33994;50.998;5.864;2022-12-18T02:47:52;35.17;;;13.63;;
48203;SDS011;33994;50.998;5.864;2022-12-18T02:50:58;34.17;;;12.27;;
48203;SDS011;33994;50.998;5.864;2022-12-18T02:54:08;31.35;;;13.23;;
48203;SDS011;33994;50.998;5.864;2022-12-18T02:57:18;37.55;;;14.20;;
48203;SDS011;33994;50.998;5.864;2022-12-18T03:00:28;29.48;;;12.80;;
48203;SDS011;33994;50.998;5.864;2022-12-18T03:03:38;37.30;;;13.70;;
48203;SDS011;33994;50.998;5.864;2022-12-18T03:06:47;30.65;;;13.30;;
48203;SDS011;33994;50.998;5.864;2022-12-18T03:09:52;28.13;;;11.88;;
48203;SDS011;33994;50.998;5.864;2022-12-18T03:13:00;34.42;;;12.80;;
48203;SDS011;33994;50.998;5.864;2022-12-18T03:16:08;33.33;;;14.07;;
48203;SDS011;33994;50.998;5.864;2022-12-18T03:19:14;30.17;;;11.40;;
48203;SDS011;33994;50.998;5.864;2022-12-18T03:22:20;32.05;;;11.93;;
48203;SDS011;33994;50.998;5.864;2022-12-18T03:25:26;30.38;;;12.57;;
48203;SDS011;33994;50.998;5.864;2022-12-18T03:28:34;30.42;;;11.38;;
48203;SDS011;33994;50.998;5.864;2022-12-18T03:31:41;26.40;;;11.35;;
48203;SDS011;33994;50.998;5.864;2022-12-18T03:34:50;24.65;;;10.77;;
48203;SDS011;33994;50.998;5.864;2022-12-18T03:37:56;29.67;;;10.35;;
48203;SDS011;33994;50.998;5.864;2022-12-18T03:40:59;22.77;;;9.50;;
48203;SDS011;33994;50.998;5.864;2022-12-18T03:44:12;25.58;;;11.10;;
48203;SDS011;33994;50.998;5.864;2022-12-18T03:47:21;25.67;;;11.35;;
48203;SDS011;33994;50.998;5.864;2022-12-18T03:50:34;26.50;;;10.07;;
48203;SDS011;33994;50.998;5.864;2022-12-18T03:53:42;22.90;;;9.45;;
48203;SDS011;33994;50.998;5.864;2022-12-18T03:56:52;26.73;;;10.43;;
48203;SDS011;33994;50.998;5.864;2022-12-18T04:00:03;26.67;;;9.95;;
48203;SDS011;33994;50.998;5.864;2022-12-18T04:03:11;25.33;;;9.70;;
48203;SDS011;33994;50.998;5.864;2022-12-18T04:06:16;28.33;;;10.15;;
48203;SDS011;33994;50.998;5.864;2022-12-18T04:09:20;26.52;;;10.50;;
48203;SDS011;33994;50.998;5.864;2022-12-18T04:12:24;21.05;;;8.93;;
48203;SDS011;33994;50.998;5.864;2022-12-18T04:15:28;22.65;;;10.48;;
48203;SDS011;33994;50.998;5.864;2022-12-18T04:18:32;24.70;;;9.15;;
48203;SDS011;33994;50.998;5.864;2022-12-18T04:21:35;24.00;;;10.13;;
48203;SDS011;33994;50.998;5.864;2022-12-18T04:24:38;23.88;;;9.93;;
48203;SDS011;33994;50.998;5.864;2022-12-18T04:27:41;22.52;;;9.32;;
48203;SDS011;33994;50.998;5.864;2022-12-18T04:30:46;21.10;;;8.73;;
48203;SDS011;33994;50.998;5.864;2022-12-18T04:33:49;21.52;;;9.15;;
48203;SDS011;33994;50.998;5.864;2022-12-18T04:36:52;21.33;;;9.23;;
48203;SDS011;33994;50.998;5.864;2022-12-18T04:39:55;23.50;;;10.82;;
48203;SDS011;33994;50.998;5.864;2022-12-18T04:42:59;22.70;;;10.88;;
48203;SDS011;33994;50.998;5.864;2022-12-18T04:46:04;23.65;;;10.18;;
48203;SDS011;33994;50.998;5.864;2022-12-18T04:49:08;20.17;;;9.55;;
48203;SDS011;33994;50.998;5.864;2022-12-18T04:52:11;25.23;;;10.75;;
48203;SDS011;33994;50.998;5.864;2022-12-18T04:55:14;25.15;;;10.35;;
48203;SDS011;33994;50.998;5.864;2022-12-18T04:58:17;29.58;;;11.02;;
48203;SDS011;33994;50.998;5.864;2022-12-18T05:01:21;24.67;;;10.48;;
48203;SDS011;33994;50.998;5.864;2022-12-18T05:04:25;22.55;;;9.52;;
48203;SDS011;33994;50.998;5.864;2022-12-18T05:07:28;25.55;;;10.77;;
48203;SDS011;33994;50.998;5.864;2022-12-18T05:10:31;24.25;;;10.25;;
48203;SDS011;33994;50.998;5.864;2022-12-18T05:13:34;23.85;;;9.45;;
48203;SDS011;33994;50.998;5.864;2022-12-18T05:16:39;26.88;;;9.93;;
48203;SDS011;33994;50.998;5.864;2022-12-18T05:19:42;23.85;;;9.57;;
48203;SDS011;33994;50.998;5.864;2022-12-18T05:22:45;23.70;;;9.50;;
48203;SDS011;33994;50.998;5.864;2022-12-18T05:25:49;23.73;;;10.23;;
48203;SDS011;33994;50.998;5.864;2022-12-18T05:28:53;29.08;;;10.68;;
48203;SDS011;33994;50.998;5.864;2022-12-18T05:31:57;19.90;;;9.20;;
48203;SDS011;33994;50.998;5.864;2022-12-18T05:35:00;24.58;;;10.70;;
48203;SDS011;33994;50.998;5.864;2022-12-18T05:38:03;26.23;;;10.60;;
48203;SDS011;33994;50.998;5.864;2022-12-18T05:41:07;24.17;;;10.00;;
48203;SDS011;33994;50.998;5.864;2022-12-18T05:44:10;22.42;;;10.10;;
48203;SDS011;33994;50.998;5.864;2022-12-18T05:47:15;25.55;;;10.40;;
48203;SDS011;33994;50.998;5.864;2022-12-18T05:50:18;25.33;;;9.63;;
48203;SDS011;33994;50.998;5.864;2022-12-18T05:53:21;26.48;;;10.75;;
48203;SDS011;33994;50.998;5.864;2022-12-18T05:56:24;23.33;;;11.20;;
48203;SDS011;33994;50.998;5.864;2022-12-18T05:59:27;24.02;;;10.75;;
48203;SDS011;33994;50.998;5.864;2022-12-18T06:02:31;26.83;;;10.90;;
48203;SDS011;33994;50.998;5.864;2022-12-18T06:05:34;25.25;;;10.20;;
48203;SDS011;33994;50.998;5.864;2022-12-18T06:08:38;26.15;;;11.05;;
48203;SDS011;33994;50.998;5.864;2022-12-18T06:11:41;24.98;;;11.60;;
48203;SDS011;33994;50.998;5.864;2022-12-18T06:14:44;25.70;;;10.65;;
48203;SDS011;33994;50.998;5.864;2022-12-18T06:17:48;31.50;;;11.38;;
48203;SDS011;33994;50.998;5.864;2022-12-18T06:20:54;27.92;;;11.48;;
48203;SDS011;33994;50.998;5.864;2022-12-18T06:24:00;28.17;;;11.05;;
48203;SDS011;33994;50.998;5.864;2022-12-18T06:27:03;25.77;;;10.95;;
48203;SDS011;33994;50.998;5.864;2022-12-18T06:30:06;26.65;;;10.50;;
48203;SDS011;33994;50.998;5.864;2022-12-18T06:33:11;27.40;;;11.32;;
48203;SDS011;33994;50.998;5.864;2022-12-18T06:36:15;27.40;;;10.82;;
48203;SDS011;33994;50.998;5.864;2022-12-18T06:39:18;29.75;;;11.27;;
48203;SDS011;33994;50.998;5.864;2022-12-18T06:42:21;30.20;;;11.40;;
48203;SDS011;33994;50.998;5.864;2022-12-18T06:45:24;29.10;;;11.48;;
48203;SDS011;33994;50.998;5.864;2022-12-18T06:48:29;27.90;;;11.80;;
48203;SDS011;33994;50.998;5.864;2022-12-18T06:51:32;30.77;;;11.98;;
48203;SDS011;33994;50.998;5.864;2022-12-18T06:54:35;28.58;;;11.68;;
48203;SDS011;33994;50.998;5.864;2022-12-18T06:57:38;28.10;;;10.63;;
48203;SDS011;33994;50.998;5.864;2022-12-18T07:00:42;27.25;;;11.57;;
48203;SDS011;33994;50.998;5.864;2022-12-18T07:03:46;26.35;;;10.77;;
48203;SDS011;33994;50.998;5.864;2022-12-18T07:06:49;25.48;;;11.88;;
48203;SDS011;33994;50.998;5.864;2022-12-18T07:09:52;30.10;;;11.60;;
48203;SDS011;33994;50.998;5.864;2022-12-18T07:12:55;27.55;;;11.80;;
48203;SDS011;33994;50.998;5.864;2022-12-18T07:16:03;28.48;;;12.48;;
48203;SDS011;33994;50.998;5.864;2022-12-18T07:19:11;26.23;;;11.68;;
48203;SDS011;33994;50.998;5.864;2022-12-18T07:22:13;28.80;;;12.00;;
48203;SDS011;33994;50.998;5.864;2022-12-18T07:25:17;28.98;;;12.23;;
48203;SDS011;33994;50.998;5.864;2022-12-18T07:28:20;29.40;;;11.75;;
48203;SDS011;33994;50.998;5.864;2022-12-18T07:31:23;27.70;;;11.80;;
48203;SDS011;33994;50.998;5.864;2022-12-18T07:34:29;28.25;;;11.60;;
48203;SDS011;33994;50.998;5.864;2022-12-18T07:37:32;30.13;;;13.60;;
48203;SDS011;33994;50.998;5.864;2022-12-18T07:40:35;32.28;;;12.07;;
48203;SDS011;33994;50.998;5.864;2022-12-18T07:43:38;31.52;;;13.00;;
48203;SDS011;33994;50.998;5.864;2022-12-18T07:46:41;33.30;;;12.63;;
48203;SDS011;33994;50.998;5.864;2022-12-18T07:49:45;30.58;;;13.20;;
48203;SDS011;33994;50.998;5.864;2022-12-18T07:52:49;29.13;;;12.48;;
48203;SDS011;33994;50.998;5.864;2022-12-18T07:55:54;28.70;;;12.23;;
48203;SDS011;33994;50.998;5.864;2022-12-18T07:58:58;36.60;;;13.23;;
48203;SDS011;33994;50.998;5.864;2022-12-18T08:02:01;29.90;;;12.98;;
48203;SDS011;33994;50.998;5.864;2022-12-18T08:05:06;31.48;;;12.50;;
48203;SDS011;33994;50.998;5.864;2022-12-18T08:08:10;32.08;;;12.65;;
48203;SDS011;33994;50.998;5.864;2022-12-18T08:11:12;27.85;;;11.88;;
48203;SDS011;33994;50.998;5.864;2022-12-18T08:14:16;29.08;;;11.90;;
48203;SDS011;33994;50.998;5.864;2022-12-18T08:17:19;27.08;;;11.93;;
48203;SDS011;33994;50.998;5.864;2022-12-18T08:20:23;30.95;;;13.00;;
48203;SDS011;33994;50.998;5.864;2022-12-18T08:23:25;32.83;;;12.75;;
48203;SDS011;33994;50.998;5.864;2022-12-18T08:26:29;29.77;;;12.48;;
48203;SDS011;33994;50.998;5.864;2022-12-18T08:29:33;32.58;;;13.45;;
48203;SDS011;33994;50.998;5.864;2022-12-18T08:32:36;31.98;;;13.30;;
48203;SDS011;33994;50.998;5.864;2022-12-18T08:35:40;29.45;;;13.27;;
48203;SDS011;33994;50.998;5.864;2022-12-18T08:38:43;32.33;;;12.57;;
48203;SDS011;33994;50.998;5.864;2022-12-18T08:41:46;30.48;;;12.75;;
48203;SDS011;33994;50.998;5.864;2022-12-18T08:44:49;30.90;;;12.60;;
48203;SDS011;33994;50.998;5.864;2022-12-18T08:47:52;31.15;;;12.82;;
48203;SDS011;33994;50.998;5.864;2022-12-18T08:50:57;29.27;;;12.75;;
48203;SDS011;33994;50.998;5.864;2022-12-18T08:54:01;32.08;;;12.10;;
48203;SDS011;33994;50.998;5.864;2022-12-18T08:57:04;33.67;;;13.48;;
48203;SDS011;33994;50.998;5.864;2022-12-18T09:00:08;30.05;;;13.02;;
48203;SDS011;33994;50.998;5.864;2022-12-18T09:03:12;31.65;;;13.13;;
48203;SDS011;33994;50.998;5.864;2022-12-18T09:06:17;34.15;;;13.77;;
48203;SDS011;33994;50.998;5.864;2022-12-18T09:09:22;31.33;;;14.18;;
48203;SDS011;33994;50.998;5.864;2022-12-18T09:12:25;27.38;;;11.98;;
48203;SDS011;33994;50.998;5.864;2022-12-18T09:15:29;28.75;;;12.85;;
48203;SDS011;33994;50.998;5.864;2022-12-18T09:18:32;33.58;;;13.82;;
48203;SDS011;33994;50.998;5.864;2022-12-18T09:21:36;28.63;;;12.68;;
48203;SDS011;33994;50.998;5.864;2022-12-18T09:24:39;36.30;;;15.25;;
48203;SDS011;33994;50.998;5.864;2022-12-18T09:27:42;32.58;;;13.38;;
48203;SDS011;33994;50.998;5.864;2022-12-18T09:30:46;35.42;;;14.55;;
48203;SDS011;33994;50.998;5.864;2022-12-18T09:33:51;30.90;;;13.48;;
48203;SDS011;33994;50.998;5.864;2022-12-18T09:36:55;30.67;;;13.27;;
48203;SDS011;33994;50.998;5.864;2022-12-18T09:39:58;30.63;;;13.73;;
48203;SDS011;33994;50.998;5.864;2022-12-18T09:43:03;31.55;;;13.40;;
48203;SDS011;33994;50.998;5.864;2022-12-18T09:46:09;36.38;;;14.82;;
48203;SDS011;33994;50.998;5.864;2022-12-18T09:49:18;32.42;;;13.52;;
48203;SDS011;33994;50.998;5.864;2022-12-18T09:52:28;32.97;;;14.52;;
48203;SDS011;33994;50.998;5.864;2022-12-18T09:55:36;32.13;;;13.80;;
48203;SDS011;33994;50.998;5.864;2022-12-18T09:58:43;36.05;;;14.23;;
48203;SDS011;33994;50.998;5.864;2022-12-18T10:01:51;32.53;;;13.70;;
48203;SDS011;33994;50.998;5.864;2022-12-18T10:04:59;33.80;;;13.70;;
48203;SDS011;33994;50.998;5.864;2022-12-18T10:08:10;32.67;;;13.73;;
48203;SDS011;33994;50.998;5.864;2022-12-18T10:11:21;31.52;;;13.10;;
48203;SDS011;33994;50.998;5.864;2022-12-18T10:14:36;28.40;;;12.85;;
48203;SDS011;33994;50.998;5.864;2022-12-18T10:17:45;31.23;;;12.70;;
48203;SDS011;33994;50.998;5.864;2022-12-18T10:20:54;32.33;;;14.43;;
48203;SDS011;33994;50.998;5.864;2022-12-18T10:24:08;30.27;;;13.50;;
48203;SDS011;33994;50.998;5.864;2022-12-18T10:27:22;30.42;;;14.15;;
48203;SDS011;33994;50.998;5.864;2022-12-18T10:30:27;28.65;;;12.15;;
48203;SDS011;33994;50.998;5.864;2022-12-18T10:33:31;29.73;;;13.48;;
48203;SDS011;33994;50.998;5.864;2022-12-18T10:36:35;30.25;;;12.90;;
48203;SDS011;33994;50.998;5.864;2022-12-18T10:39:40;27.10;;;13.65;;
48203;SDS011;33994;50.998;5.864;2022-12-18T10:42:43;33.85;;;14.65;;
48203;SDS011;33994;50.998;5.864;2022-12-18T10:45:57;30.13;;;13.43;;
48203;SDS011;33994;50.998;5.864;2022-12-18T10:49:05;28.90;;;14.07;;
48203;SDS011;33994;50.998;5.864;2022-12-18T10:52:20;31.92;;;13.88;;
48203;SDS011;33994;50.998;5.864;2022-12-18T10:55:30;28.83;;;12.63;;
48203;SDS011;33994;50.998;5.864;2022-12-18T10:58:36;29.30;;;13.25;;
48203;SDS011;33994;50.998;5.864;2022-12-18T11:01:47;32.22;;;14.48;;
48203;SDS011;33994;50.998;5.864;2022-12-18T11:04:52;31.45;;;14.07;;
48203;SDS011;33994;50.998;5.864;2022-12-18T11:07:56;30.98;;;14.25;;
48203;SDS011;33994;50.998;5.864;2022-12-18T11:11:01;32.53;;;14.43;;
48203;SDS011;33994;50.998;5.864;2022-12-18T11:14:12;33.20;;;13.95;;
48203;SDS011;33994;50.998;5.864;2022-12-18T11:17:21;31.60;;;14.35;;
48203;SDS011;33994;50.998;5.864;2022-12-18T11:20:30;34.95;;;14.82;;
48203;SDS011;33994;50.998;5.864;2022-12-18T11:23:37;31.05;;;13.20;;
48203;SDS011;33994;50.998;5.864;2022-12-18T11:26:50;35.22;;;14.75;;
48203;SDS011;33994;50.998;5.864;2022-12-18T11:30:06;30.20;;;14.10;;
48203;SDS011;33994;50.998;5.864;2022-12-18T11:33:11;32.10;;;14.38;;
48203;SDS011;33994;50.998;5.864;2022-12-18T11:36:18;32.72;;;13.27;;
48203;SDS011;33994;50.998;5.864;2022-12-18T11:39:24;36.22;;;13.48;;
48203;SDS011;33994;50.998;5.864;2022-12-18T11:42:39;30.70;;;13.60;;
48203;SDS011;33994;50.998;5.864;2022-12-18T11:45:49;29.73;;;13.57;;
48203;SDS011;33994;50.998;5.864;2022-12-18T11:48:56;27.45;;;13.75;;
48203;SDS011;33994;50.998;5.864;2022-12-18T11:52:07;29.27;;;13.63;;
48203;SDS011;33994;50.998;5.864;2022-12-18T11:55:19;34.28;;;15.57;;
48203;SDS011;33994;50.998;5.864;2022-12-18T11:58:35;27.88;;;13.23;;
48203;SDS011;33994;50.998;5.864;2022-12-18T12:01:48;29.92;;;12.85;;
48203;SDS011;33994;50.998;5.864;2022-12-18T12:05:04;22.95;;;11.02;;
48203;SDS011;33994;50.998;5.864;2022-12-18T12:08:21;38.78;;;15.02;;
48203;SDS011;33994;50.998;5.864;2022-12-18T12:11:39;32.20;;;14.57;;
48203;SDS011;33994;50.998;5.864;2022-12-18T12:14:55;31.23;;;14.77;;
48203;SDS011;33994;50.998;5.864;2022-12-18T12:18:12;33.78;;;15.32;;
48203;SDS011;33994;50.998;5.864;2022-12-18T12:21:28;28.13;;;14.02;;
48203;SDS011;33994;50.998;5.864;2022-12-18T12:24:41;28.65;;;14.65;;
48203;SDS011;33994;50.998;5.864;2022-12-18T12:27:54;28.17;;;14.45;;
48203;SDS011;33994;50.998;5.864;2022-12-18T12:31:12;31.67;;;14.95;;
48203;SDS011;33994;50.998;5.864;2022-12-18T12:34:24;30.88;;;15.35;;
48203;SDS011;33994;50.998;5.864;2022-12-18T12:37:34;33.20;;;15.38;;
48203;SDS011;33994;50.998;5.864;2022-12-18T12:40:45;34.65;;;14.95;;
48203;SDS011;33994;50.998;5.864;2022-12-18T12:43:52;32.70;;;14.70;;
48203;SDS011;33994;50.998;5.864;2022-12-18T12:47:01;30.70;;;14.52;;
48203;SDS011;33994;50.998;5.864;2022-12-18T12:50:16;31.42;;;14.00;;
48203;SDS011;33994;50.998;5.864;2022-12-18T12:53:25;34.92;;;14.30;;
48203;SDS011;33994;50.998;5.864;2022-12-18T12:56:35;37.13;;;14.55;;
48203;SDS011;33994;50.998;5.864;2022-12-18T12:59:47;34.90;;;15.07;;
48203;SDS011;33994;50.998;5.864;2022-12-18T13:02:59;36.60;;;15.40;;
48203;SDS011;33994;50.998;5.864;2022-12-18T13:06:23;33.95;;;14.82;;
48203;SDS011;33994;50.998;5.864;2022-12-18T13:09:33;31.80;;;14.43;;
48203;SDS011;33994;50.998;5.864;2022-12-18T13:12:57;31.73;;;14.60;;
48203;SDS011;33994;50.998;5.864;2022-12-18T13:16:03;35.88;;;14.93;;
48203;SDS011;33994;50.998;5.864;2022-12-18T13:19:18;35.08;;;14.88;;
48203;SDS011;33994;50.998;5.864;2022-12-18T13:22:24;31.42;;;14.68;;
48203;SDS011;33994;50.998;5.864;2022-12-18T13:25:34;28.75;;;14.77;;
48203;SDS011;33994;50.998;5.864;2022-12-18T13:31:59;32.22;;;14.68;;
48203;SDS011;33994;50.998;5.864;2022-12-18T13:38:42;27.73;;;14.18;;
48203;SDS011;33994;50.998;5.864;2022-12-18T13:41:47;29.52;;;13.98;;
48203;SDS011;33994;50.998;5.864;2022-12-18T13:44:51;31.85;;;13.73;;
48203;SDS011;33994;50.998;5.864;2022-12-18T13:47:54;28.65;;;13.77;;
48203;SDS011;33994;50.998;5.864;2022-12-18T13:51:00;38.50;;;15.05;;
48203;SDS011;33994;50.998;5.864;2022-12-18T13:54:10;32.00;;;14.75;;
48203;SDS011;33994;50.998;5.864;2022-12-18T13:57:25;29.25;;;15.18;;
48203;SDS011;33994;50.998;5.864;2022-12-18T14:03:33;28.85;;;13.05;;
48203;SDS011;33994;50.998;5.864;2022-12-18T14:06:38;36.80;;;14.73;;
48203;SDS011;33994;50.998;5.864;2022-12-18T14:09:42;33.33;;;15.25;;
48203;SDS011;33994;50.998;5.864;2022-12-18T14:12:47;33.40;;;15.43;;
48203;SDS011;33994;50.998;5.864;2022-12-18T14:15:52;29.98;;;14.65;;
48203;SDS011;33994;50.998;5.864;2022-12-18T14:18:56;35.08;;;15.13;;
48203;SDS011;33994;50.998;5.864;2022-12-18T14:22:01;32.67;;;15.05;;
48203;SDS011;33994;50.998;5.864;2022-12-18T14:25:06;32.78;;;14.93;;
48203;SDS011;33994;50.998;5.864;2022-12-18T14:28:16;35.28;;;14.85;;
48203;SDS011;33994;50.998;5.864;2022-12-18T14:31:20;32.97;;;14.27;;
48203;SDS011;33994;50.998;5.864;2022-12-18T14:34:26;34.67;;;16.45;;
48203;SDS011;33994;50.998;5.864;2022-12-18T14:37:30;35.33;;;15.32;;
48203;SDS011;33994;50.998;5.864;2022-12-18T14:40:34;37.10;;;15.88;;
48203;SDS011;33994;50.998;5.864;2022-12-18T14:43:37;35.80;;;15.48;;
48203;SDS011;33994;50.998;5.864;2022-12-18T14:46:41;34.05;;;15.73;;
48203;SDS011;33994;50.998;5.864;2022-12-18T14:49:46;33.03;;;16.48;;
48203;SDS011;33994;50.998;5.864;2022-12-18T14:52:50;37.65;;;17.13;;
48203;SDS011;33994;50.998;5.864;2022-12-18T14:55:53;36.05;;;15.95;;
48203;SDS011;33994;50.998;5.864;2022-12-18T14:58:57;32.13;;;14.77;;
48203;SDS011;33994;50.998;5.864;2022-12-18T15:02:03;36.55;;;17.83;;
48203;SDS011;33994;50.998;5.864;2022-12-18T15:05:16;36.88;;;15.30;;
48203;SDS011;33994;50.998;5.864;2022-12-18T15:08:34;32.40;;;15.63;;
48203;SDS011;33994;50.998;5.864;2022-12-18T15:11:48;34.97;;;16.85;;
48203;SDS011;33994;50.998;5.864;2022-12-18T15:14:51;36.22;;;17.33;;
48203;SDS011;33994;50.998;5.864;2022-12-18T15:17:56;36.70;;;15.88;;
48203;SDS011;33994;50.998;5.864;2022-12-18T15:21:06;36.10;;;16.25;;
48203;SDS011;33994;50.998;5.864;2022-12-18T15:24:16;36.20;;;17.40;;
48203;SDS011;33994;50.998;5.864;2022-12-18T15:27:29;35.53;;;16.60;;
48203;SDS011;33994;50.998;5.864;2022-12-18T15:30:34;35.92;;;15.75;;
48203;SDS011;33994;50.998;5.864;2022-12-18T15:33:38;40.85;;;17.08;;
48203;SDS011;33994;50.998;5.864;2022-12-18T15:36:42;35.95;;;17.20;;
48203;SDS011;33994;50.998;5.864;2022-12-18T15:39:46;39.17;;;16.27;;
48203;SDS011;33994;50.998;5.864;2022-12-18T15:42:51;38.35;;;17.08;;
48203;SDS011;33994;50.998;5.864;2022-12-18T15:45:57;36.35;;;17.63;;
48203;SDS011;33994;50.998;5.864;2022-12-18T15:49:00;37.10;;;17.42;;
48203;SDS011;33994;50.998;5.864;2022-12-18T15:52:03;40.38;;;17.42;;
48203;SDS011;33994;50.998;5.864;2022-12-18T15:55:09;40.85;;;17.25;;
48203;SDS011;33994;50.998;5.864;2022-12-18T15:58:14;41.17;;;17.02;;
48203;SDS011;33994;50.998;5.864;2022-12-18T16:01:17;38.47;;;17.23;;
48203;SDS011;33994;50.998;5.864;2022-12-18T16:04:21;40.05;;;17.65;;
48203;SDS011;33994;50.998;5.864;2022-12-18T16:07:25;38.40;;;17.35;;
48203;SDS011;33994;50.998;5.864;2022-12-18T16:10:29;36.17;;;17.83;;
48203;SDS011;33994;50.998;5.864;2022-12-18T16:13:32;39.55;;;17.90;;
48203;SDS011;33994;50.998;5.864;2022-12-18T16:16:36;39.05;;;17.33;;
48203;SDS011;33994;50.998;5.864;2022-12-18T16:19:38;44.83;;;17.45;;
48203;SDS011;33994;50.998;5.864;2022-12-18T16:22:43;40.75;;;19.17;;
48203;SDS011;33994;50.998;5.864;2022-12-18T16:25:48;37.72;;;16.73;;
48203;SDS011;33994;50.998;5.864;2022-12-18T16:28:51;37.58;;;16.50;;
48203;SDS011;33994;50.998;5.864;2022-12-18T16:31:54;39.63;;;17.63;;
48203;SDS011;33994;50.998;5.864;2022-12-18T16:34:59;44.38;;;17.50;;
48203;SDS011;33994;50.998;5.864;2022-12-18T16:38:02;37.35;;;16.88;;
48203;SDS011;33994;50.998;5.864;2022-12-18T16:41:14;38.17;;;17.20;;
48203;SDS011;33994;50.998;5.864;2022-12-18T16:44:20;40.78;;;17.30;;
48203;SDS011;33994;50.998;5.864;2022-12-18T16:47:24;36.75;;;17.25;;
48203;SDS011;33994;50.998;5.864;2022-12-18T16:50:27;42.20;;;18.23;;
48203;SDS011;33994;50.998;5.864;2022-12-18T16:53:30;36.10;;;16.42;;
48203;SDS011;33994;50.998;5.864;2022-12-18T16:56:36;33.65;;;17.25;;
48203;SDS011;33994;50.998;5.864;2022-12-18T16:59:40;35.55;;;17.08;;
48203;SDS011;33994;50.998;5.864;2022-12-18T17:02:43;38.97;;;17.85;;
48203;SDS011;33994;50.998;5.864;2022-12-18T17:05:46;41.10;;;17.52;;
48203;SDS011;33994;50.998;5.864;2022-12-18T17:08:53;39.63;;;18.63;;
48203;SDS011;33994;50.998;5.864;2022-12-18T17:11:58;42.83;;;19.35;;
48203;SDS011;33994;50.998;5.864;2022-12-18T17:15:01;42.90;;;18.50;;
48203;SDS011;33994;50.998;5.864;2022-12-18T17:18:05;38.55;;;18.00;;
48203;SDS011;33994;50.998;5.864;2022-12-18T17:21:08;42.40;;;18.60;;
48203;SDS011;33994;50.998;5.864;2022-12-18T17:24:12;41.28;;;17.55;;
48203;SDS011;33994;50.998;5.864;2022-12-18T17:27:16;40.42;;;18.95;;
48203;SDS011;33994;50.998;5.864;2022-12-18T17:30:19;41.67;;;18.92;;
48203;SDS011;33994;50.998;5.864;2022-12-18T17:33:23;43.97;;;18.63;;
48203;SDS011;33994;50.998;5.864;2022-12-18T17:36:26;45.92;;;18.63;;
48203;SDS011;33994;50.998;5.864;2022-12-18T17:39:29;36.90;;;18.60;;
48203;SDS011;33994;50.998;5.864;2022-12-18T17:42:34;41.25;;;20.27;;
48203;SDS011;33994;50.998;5.864;2022-12-18T17:45:37;39.08;;;18.48;;
48203;SDS011;33994;50.998;5.864;2022-12-18T17:48:40;47.38;;;18.80;;
48203;SDS011;33994;50.998;5.864;2022-12-18T17:51:43;43.92;;;19.13;;
48203;SDS011;33994;50.998;5.864;2022-12-18T17:54:46;43.30;;;19.40;;
48203;SDS011;33994;50.998;5.864;2022-12-18T17:57:51;41.58;;;18.83;;
48203;SDS011;33994;50.998;5.864;2022-12-18T18:00:54;43.00;;;19.92;;
48203;SDS011;33994;50.998;5.864;2022-12-18T18:03:57;40.85;;;19.83;;
48203;SDS011;33994;50.998;5.864;2022-12-18T18:07:00;42.72;;;19.23;;
48203;SDS011;33994;50.998;5.864;2022-12-18T18:10:04;44.55;;;19.73;;
48203;SDS011;33994;50.998;5.864;2022-12-18T18:13:15;42.80;;;19.05;;
48203;SDS011;33994;50.998;5.864;2022-12-18T18:16:21;42.75;;;18.75;;
48203;SDS011;33994;50.998;5.864;2022-12-18T18:19:24;40.85;;;18.67;;